createdAt,value
2023-03-06T00:00:06.799Z,1.70
2023-03-06T00:02:39.568Z,1.00
2023-03-06T00:05:07.180Z,1.10
2023-03-06T00:07:34.614Z,0.90
2023-03-06T00:10:02.103Z,0.88
2023-03-06T00:12:29.573Z,0.60
2023-03-06T00:14:57.023Z,0.32
2023-03-06T00:17:24.543Z,0.90
2023-03-06T00:19:51.958Z,1.25
2023-03-06T00:22:19.423Z,1.17
2023-03-06T00:24:46.913Z,0.75
2023-03-06T00:27:14.344Z,0.70
2023-03-06T00:29:42.274Z,0.40
2023-03-06T00:32:09.791Z,0.60
2023-03-06T00:34:37.255Z,1.80
2023-03-06T00:37:04.751Z,0.30
2023-03-06T00:39:33.427Z,0.60
2023-03-06T00:42:00.926Z,0.40
2023-03-06T00:44:28.365Z,0.20
2023-03-06T00:46:55.840Z,0.20
2023-03-06T00:49:24.418Z,0.40
2023-03-06T00:51:51.860Z,0.30
2023-03-06T00:54:19.684Z,0.20
2023-03-06T00:56:47.147Z,0.28
2023-03-06T00:59:14.629Z,0.38
2023-03-06T01:01:42.149Z,0.20
2023-03-06T01:04:09.729Z,0.30
2023-03-06T01:06:37.367Z,0.55
2023-03-06T01:09:05.474Z,0.30
2023-03-06T01:11:40.238Z,0.60
2023-03-06T01:14:07.746Z,0.30
2023-03-06T01:16:35.278Z,0.40
2023-03-06T01:19:02.775Z,0.77
2023-03-06T01:21:30.332Z,0.63
2023-03-06T01:23:58.558Z,0.40
2023-03-06T01:26:27.565Z,0.20
2023-03-06T01:28:57.424Z,0.30
2023-03-06T01:31:25.366Z,0.30
2023-03-06T01:33:53.056Z,0.20
2023-03-06T01:36:20.553Z,0.10
2023-03-06T01:38:47.996Z,0.32
2023-03-06T01:41:16.061Z,0.28
2023-03-06T01:43:45.419Z,0.20
2023-03-06T01:46:19.183Z,0.45
2023-03-06T01:48:47.811Z,0.35
2023-03-06T01:51:15.795Z,0.10
2023-03-06T01:53:43.718Z,0.10
2023-03-06T01:56:11.969Z,0.20
2023-03-06T01:58:39.592Z,0.22
2023-03-06T02:01:07.111Z,0.20
2023-03-06T02:03:34.624Z,0.13
2023-03-06T02:06:02.119Z,0.10
2023-03-06T02:08:32.201Z,0.40
2023-03-06T02:11:10.160Z,0.30
2023-03-06T02:13:38.103Z,0.17
2023-03-06T02:16:05.700Z,0.10
2023-03-06T02:18:34.272Z,0.38
2023-03-06T02:21:04.551Z,0.40
2023-03-06T02:23:47.365Z,0.35
2023-03-06T02:26:16.059Z,0.55
2023-03-06T02:28:43.759Z,0.45
2023-03-06T02:31:20.922Z,0.17
2023-03-06T02:34:00.784Z,0.15
2023-03-06T02:36:29.989Z,0.10
2023-03-06T02:38:57.999Z,0.20
2023-03-06T02:41:25.829Z,0.20
2023-03-06T02:43:54.142Z,0.20
2023-03-06T02:46:21.652Z,0.25
2023-03-06T02:48:49.193Z,0.20
2023-03-06T02:51:16.665Z,0.17
2023-03-06T02:53:44.480Z,0.17
2023-03-06T02:56:11.963Z,0.35
2023-03-06T02:58:39.747Z,0.40
2023-03-06T03:01:07.521Z,0.20
2023-03-06T03:03:35.654Z,0.10
2023-03-06T03:06:05.440Z,0.20
2023-03-06T03:08:34.941Z,0.10
2023-03-06T03:11:04.437Z,0.28
2023-03-06T03:13:40.614Z,0.10
2023-03-06T03:16:16.253Z,0.10
2023-03-06T03:18:44.616Z,0.20
2023-03-06T03:21:13.691Z,0.20
2023-03-06T03:23:42.632Z,0.28
2023-03-06T03:26:18.588Z,0.20
2023-03-06T03:31:22.090Z,0.30
2023-03-06T03:33:50.679Z,0.20
2023-03-06T03:36:19.921Z,0.55
2023-03-06T03:38:48.324Z,0.38
2023-03-06T03:41:15.903Z,0.30
2023-03-06T03:43:43.831Z,0.40
2023-03-06T03:46:11.560Z,0.32
2023-03-06T03:48:39.582Z,0.80
2023-03-06T03:51:08.665Z,0.70
2023-03-06T03:53:40.048Z,1.10
2023-03-06T03:56:09.909Z,0.60
2023-03-06T03:58:45.259Z,0.85
2023-03-06T04:01:13.190Z,0.60
2023-03-06T04:03:41.197Z,0.70
2023-03-06T04:06:10.512Z,0.60
2023-03-06T04:08:38.817Z,0.50
2023-03-06T04:11:09.300Z,0.98
2023-03-06T04:13:36.824Z,1.13
2023-03-06T04:16:06.179Z,0.50
2023-03-06T04:18:35.670Z,0.70
2023-03-06T04:21:06.031Z,0.88
2023-03-06T04:23:34.124Z,0.90
2023-03-06T04:26:01.655Z,0.93
2023-03-06T04:28:29.450Z,0.80
2023-03-06T04:30:57.932Z,0.70
2023-03-06T04:33:25.612Z,0.80
2023-03-06T04:35:54.600Z,0.63
2023-03-06T04:38:26.819Z,1.00
2023-03-06T04:40:54.409Z,0.60
2023-03-06T04:43:22.133Z,0.80
2023-03-06T04:45:49.645Z,0.80
2023-03-06T04:48:19.962Z,0.60
2023-03-06T04:50:47.648Z,0.98
2023-03-06T04:53:16.711Z,0.90
2023-03-06T04:55:44.144Z,1.02
2023-03-06T04:58:12.327Z,1.02
2023-03-06T05:00:39.792Z,0.90
2023-03-06T05:03:07.282Z,1.27
2023-03-06T05:05:34.739Z,0.80
2023-03-06T05:08:02.199Z,0.57
2023-03-06T05:10:29.657Z,0.45
2023-03-06T05:12:57.160Z,0.98
2023-03-06T05:15:25.640Z,0.77
2023-03-06T05:17:53.127Z,0.50
2023-03-06T05:20:20.719Z,0.30
2023-03-06T05:22:48.153Z,0.40
2023-03-06T05:25:15.626Z,0.40
2023-03-06T05:27:43.294Z,1.40
2023-03-06T05:30:12.997Z,1.75
2023-03-06T05:32:40.540Z,1.38
2023-03-06T05:35:08.337Z,0.88
2023-03-06T05:37:35.813Z,0.70
2023-03-06T05:40:06.616Z,0.40
2023-03-06T05:42:34.095Z,0.57
2023-03-06T05:45:02.612Z,0.40
2023-03-06T05:47:30.080Z,0.52
2023-03-06T05:49:57.568Z,0.65
2023-03-06T05:52:25.099Z,0.90
2023-03-06T05:54:53.581Z,0.80
2023-03-06T05:57:21.725Z,0.90
2023-03-06T05:59:50.002Z,0.50
2023-03-06T06:02:18.166Z,0.60
2023-03-06T06:04:45.676Z,0.50
2023-03-06T06:07:16.801Z,0.45
2023-03-06T06:09:45.670Z,0.35
2023-03-06T06:12:14.012Z,1.27
2023-03-06T06:14:41.462Z,0.90
2023-03-06T06:17:08.946Z,0.55
2023-03-06T06:19:36.482Z,0.73
2023-03-06T06:22:03.941Z,0.70
2023-03-06T06:24:32.153Z,0.90
2023-03-06T06:27:03.302Z,0.75
2023-03-06T06:29:31.347Z,0.68
2023-03-06T06:31:59.404Z,0.82
2023-03-06T06:34:27.068Z,0.57
2023-03-06T06:36:54.597Z,0.93
2023-03-06T06:39:22.990Z,1.58
2023-03-06T06:42:05.424Z,0.98
2023-03-06T06:44:37.570Z,0.95
2023-03-06T06:47:23.560Z,1.00
2023-03-06T06:49:52.867Z,1.70
2023-03-06T06:52:20.518Z,1.48
2023-03-06T06:54:49.188Z,1.20
2023-03-06T06:57:16.749Z,1.80
2023-03-06T06:59:44.196Z,1.27
2023-03-06T07:02:15.985Z,1.02
2023-03-06T07:05:00.426Z,0.95
2023-03-06T07:07:30.587Z,1.15
2023-03-06T07:09:58.074Z,0.70
2023-03-06T07:12:25.534Z,1.13
2023-03-06T07:14:52.973Z,1.50
2023-03-06T07:17:20.405Z,1.83
2023-03-06T07:19:48.221Z,2.17
2023-03-06T07:22:15.793Z,2.58
2023-03-06T07:24:43.214Z,1.00
2023-03-06T07:27:10.679Z,1.83
2023-03-06T07:29:38.123Z,1.48
2023-03-06T07:32:05.664Z,1.20
2023-03-06T07:34:33.197Z,1.10
2023-03-06T07:37:00.732Z,1.25
2023-03-06T07:39:30.056Z,1.10
2023-03-06T07:41:58.637Z,1.30
2023-03-06T07:44:26.124Z,1.20
2023-03-06T07:46:53.748Z,1.58
2023-03-06T07:49:21.305Z,0.90
2023-03-06T07:51:48.705Z,1.00
2023-03-06T07:54:16.207Z,3.33
2023-03-06T07:56:43.696Z,3.17
2023-03-06T07:59:11.665Z,1.88
2023-03-06T08:01:40.217Z,1.58
2023-03-06T08:04:08.502Z,1.33
2023-03-06T08:06:35.958Z,1.20
2023-03-06T08:09:03.589Z,1.10
2023-03-06T08:11:31.371Z,1.88
2023-03-06T08:13:59.118Z,1.17
2023-03-06T08:16:30.454Z,1.63
2023-03-06T08:18:58.208Z,1.75
2023-03-06T08:21:27.308Z,1.50
2023-03-06T08:23:55.069Z,1.92
2023-03-06T08:26:25.494Z,1.30
2023-03-06T08:28:53.761Z,1.10
2023-03-06T08:31:30.032Z,1.05
2023-03-06T08:33:58.967Z,1.10
2023-03-06T08:36:26.533Z,1.00
2023-03-06T08:38:54.016Z,0.95
2023-03-06T08:41:21.562Z,0.82
2023-03-06T08:43:49.249Z,0.80
2023-03-06T08:46:19.310Z,1.27
2023-03-06T08:48:50.069Z,1.00
2023-03-06T08:51:21.803Z,1.10
2023-03-06T08:53:49.336Z,1.33
2023-03-06T08:56:21.744Z,0.95
2023-03-06T08:58:49.310Z,1.10
2023-03-06T09:01:21.595Z,1.10
2023-03-06T09:03:49.763Z,1.42
2023-03-06T09:06:17.328Z,1.20
2023-03-06T09:08:44.892Z,0.68
2023-03-06T09:11:13.450Z,1.58
2023-03-06T09:13:41.083Z,1.25
2023-03-06T09:16:09.215Z,1.15
2023-03-06T09:18:37.165Z,0.70
2023-03-06T09:21:05.054Z,0.73
2023-03-06T09:23:32.516Z,0.65
2023-03-06T09:26:00.616Z,0.40
2023-03-06T09:28:30.121Z,0.70
2023-03-06T09:30:57.627Z,0.95
2023-03-06T09:33:25.591Z,0.40
2023-03-06T09:35:56.916Z,0.40
2023-03-06T09:38:27.811Z,0.20
2023-03-06T09:40:55.251Z,1.05
2023-03-06T09:43:29.445Z,0.63
2023-03-06T09:45:59.926Z,0.68
2023-03-06T09:48:41.270Z,0.47
2023-03-06T09:51:15.536Z,0.40
2023-03-06T09:53:43.184Z,0.32
2023-03-06T09:56:13.612Z,0.30
2023-03-06T09:58:53.028Z,0.30
2023-03-06T10:01:22.816Z,0.65
2023-03-06T10:03:54.292Z,0.30
2023-03-06T10:06:29.848Z,0.35
2023-03-06T10:09:07.734Z,0.60
2023-03-06T10:11:39.925Z,1.17
2023-03-06T10:14:12.770Z,1.07
2023-03-06T10:16:42.383Z,0.77
2023-03-06T10:19:18.327Z,0.50
2023-03-06T10:21:48.536Z,0.73
2023-03-06T10:24:21.592Z,1.17
2023-03-06T10:26:55.872Z,0.93
2023-03-06T10:29:31.733Z,0.50
2023-03-06T10:32:03.722Z,0.60
2023-03-06T10:34:33.293Z,0.60
2023-03-06T10:37:06.223Z,0.50
2023-03-06T10:39:33.665Z,0.57
2023-03-06T10:42:01.127Z,0.25
2023-03-06T10:44:28.682Z,0.70
2023-03-06T10:46:57.529Z,0.55
2023-03-06T10:49:30.180Z,1.00
2023-03-06T10:51:57.721Z,0.30
2023-03-06T10:54:25.340Z,0.38
2023-03-06T10:56:53.248Z,1.13
2023-03-06T10:59:31.147Z,0.98
2023-03-06T11:01:59.596Z,0.45
2023-03-06T11:04:32.129Z,0.30
2023-03-06T11:07:15.092Z,0.30
2023-03-06T11:09:44.498Z,0.50
2023-03-06T11:12:23.470Z,0.35
2023-03-06T11:15:06.232Z,0.50
2023-03-06T11:17:34.551Z,0.43
2023-03-06T11:20:22.516Z,0.40
2023-03-06T11:22:56.196Z,0.55
2023-03-06T11:25:33.254Z,0.40
2023-03-06T11:28:21.021Z,0.57
2023-03-06T11:30:50.872Z,0.43
2023-03-06T11:33:27.709Z,0.30
2023-03-06T11:35:58.879Z,0.30
2023-03-06T11:38:36.431Z,0.32
2023-03-06T11:41:06.618Z,0.30
2023-03-06T11:43:41.053Z,0.40
2023-03-06T11:46:08.506Z,0.40
2023-03-06T11:48:37.561Z,0.68
2023-03-06T11:51:15.181Z,0.47
2023-03-06T11:53:43.135Z,0.38
2023-03-06T11:56:19.868Z,0.38
2023-03-06T11:59:02.635Z,0.40
2023-03-06T12:01:36.899Z,0.28
2023-03-06T12:04:23.119Z,0.40
2023-03-06T12:07:01.768Z,0.20
2023-03-06T12:09:35.294Z,0.20
2023-03-06T12:12:11.822Z,0.63
2023-03-06T12:14:45.357Z,0.30
2023-03-06T12:17:25.088Z,0.20
2023-03-06T12:19:55.673Z,0.17
2023-03-06T12:22:42.255Z,0.20
2023-03-06T12:25:22.839Z,0.38
2023-03-06T12:27:53.366Z,0.60
2023-03-06T12:30:20.823Z,0.57
2023-03-06T12:33:07.316Z,0.30
2023-03-06T12:35:37.787Z,0.60
2023-03-06T12:38:08.280Z,0.52
2023-03-06T12:41:08.326Z,0.52
2023-03-06T12:43:44.854Z,0.73
2023-03-06T12:46:14.681Z,1.35
2023-03-06T12:48:43.704Z,0.38
2023-03-06T12:51:14.391Z,0.55
2023-03-06T12:53:42.315Z,0.47
2023-03-06T12:56:10.289Z,0.47
2023-03-06T12:58:48.376Z,0.52
2023-03-06T13:01:34.994Z,0.40
2023-03-06T13:04:21.424Z,0.30
2023-03-06T13:06:55.777Z,0.65
2023-03-06T13:09:43.177Z,0.40
2023-03-06T13:12:19.814Z,0.50
2023-03-06T13:14:54.164Z,0.80
2023-03-06T13:17:24.884Z,0.50
2023-03-06T13:20:11.216Z,0.68
2023-03-06T13:22:38.692Z,0.90
2023-03-06T13:25:18.341Z,0.60
2023-03-06T13:27:55.145Z,0.73
2023-03-06T13:30:22.828Z,1.35
2023-03-06T13:32:52.806Z,0.95
2023-03-06T13:35:39.221Z,1.20
2023-03-06T13:38:26.624Z,0.80
2023-03-06T13:41:14.046Z,0.95
2023-03-06T13:43:43.878Z,0.88
2023-03-06T13:46:24.745Z,1.00
2023-03-06T13:49:06.411Z,0.90
2023-03-06T13:51:49.126Z,1.20
2023-03-06T13:54:35.767Z,1.15
2023-03-06T13:57:23.459Z,1.08
2023-03-06T14:00:03.114Z,0.93
2023-03-06T14:02:54.732Z,2.38
2023-03-06T14:05:22.527Z,1.67
2023-03-06T14:08:03.794Z,2.05
2023-03-06T14:10:34.106Z,1.35
2023-03-06T14:13:03.232Z,1.50
2023-03-06T14:15:37.268Z,1.30
2023-03-06T14:18:14.186Z,0.80
2023-03-06T14:20:43.930Z,1.00
2023-03-06T14:23:20.767Z,0.90
2023-03-06T14:25:52.052Z,1.05
2023-03-06T14:28:24.242Z,1.00
2023-03-06T14:30:52.859Z,0.83
2023-03-06T14:33:47.606Z,1.02
2023-03-06T14:36:16.982Z,0.95
2023-03-06T14:38:46.680Z,0.85
2023-03-06T14:41:18.181Z,1.35
2023-03-06T14:43:45.657Z,1.00
2023-03-06T14:46:18.347Z,1.00
2023-03-06T14:48:46.872Z,1.50
2023-03-06T14:51:19.176Z,1.25
2023-03-06T14:53:48.610Z,1.47
2023-03-06T14:56:17.831Z,1.10
2023-03-06T14:59:05.509Z,1.40
2023-03-06T15:01:32.987Z,2.00
2023-03-06T15:04:01.456Z,1.75
2023-03-06T15:06:28.970Z,2.28
2023-03-06T15:09:16.686Z,2.33
2023-03-06T15:11:58.369Z,2.40
2023-03-06T15:14:36.741Z,2.63
2023-03-06T15:17:19.677Z,2.92
2023-03-06T15:19:48.530Z,3.38
2023-03-06T15:22:27.547Z,3.45
2023-03-06T15:25:04.656Z,3.53
2023-03-06T15:27:32.218Z,4.40
2023-03-06T15:30:32.763Z,4.22
2023-03-06T15:33:29.913Z,3.92
2023-03-06T15:35:58.964Z,5.22
2023-03-06T15:38:40.037Z,4.50
2023-03-06T15:41:08.508Z,4.68
2023-03-06T15:43:38.336Z,4.22
2023-03-06T15:46:07.773Z,3.95
2023-03-06T15:48:35.550Z,3.65
2023-03-06T15:51:03.858Z,4.00
2023-03-06T15:53:31.460Z,3.35
2023-03-06T15:55:59.373Z,3.10
2023-03-06T15:58:30.142Z,2.88
2023-03-06T16:00:57.691Z,2.92
2023-03-06T16:03:25.257Z,3.67
2023-03-06T16:05:52.689Z,3.78
2023-03-06T16:08:20.241Z,4.28
2023-03-06T16:10:48.002Z,4.18
2023-03-06T16:13:28.756Z,3.90
2023-03-06T16:15:56.584Z,3.95
2023-03-06T16:18:24.192Z,4.22
2023-03-06T16:20:51.642Z,4.28
2023-03-06T16:23:19.152Z,4.15
2023-03-06T16:25:48.667Z,4.75
2023-03-06T16:28:18.495Z,5.80
2023-03-06T16:30:46.110Z,5.38
2023-03-06T16:33:14.464Z,4.97
2023-03-06T16:35:44.431Z,5.13
2023-03-06T16:38:12.062Z,5.50
2023-03-06T16:40:41.435Z,6.15
2023-03-06T16:43:10.334Z,6.68
2023-03-06T16:45:41.980Z,6.50
2023-03-06T16:48:14.569Z,7.68
2023-03-06T16:50:42.221Z,7.78
2023-03-06T16:53:09.727Z,7.80
2023-03-06T16:55:37.238Z,7.30
2023-03-06T16:58:05.098Z,8.52
2023-03-06T17:00:33.423Z,8.65
2023-03-06T17:03:01.611Z,8.90
2023-03-06T17:05:29.784Z,9.13
2023-03-06T17:07:57.327Z,9.10
2023-03-06T17:10:27.294Z,8.65
2023-03-06T17:12:55.966Z,9.65
2023-03-06T17:15:23.491Z,9.77
2023-03-06T17:17:51.713Z,8.75
2023-03-06T17:20:19.595Z,8.38
2023-03-06T17:22:47.153Z,8.93
2023-03-06T17:25:14.743Z,9.05
2023-03-06T17:27:42.221Z,8.73
2023-03-06T17:30:09.979Z,7.78
2023-03-06T17:32:38.263Z,7.88
2023-03-06T17:35:06.012Z,7.43
2023-03-06T17:37:33.576Z,8.05
2023-03-06T17:40:01.122Z,7.57
2023-03-06T17:42:28.677Z,7.95
2023-03-06T17:44:57.390Z,7.82
2023-03-06T17:47:24.889Z,9.50
2023-03-06T17:49:52.363Z,9.00
2023-03-06T17:52:19.789Z,8.95
2023-03-06T17:54:47.240Z,9.57
2023-03-06T17:57:14.706Z,8.88
2023-03-06T17:59:46.740Z,9.68
2023-03-06T18:02:14.226Z,10.50
2023-03-06T18:04:42.276Z,11.00
2023-03-06T18:07:10.305Z,10.52
2023-03-06T18:09:38.600Z,10.15
2023-03-06T18:12:06.177Z,9.38
2023-03-06T18:14:33.661Z,11.23
2023-03-06T18:17:01.265Z,12.60
2023-03-06T18:19:28.814Z,12.23
2023-03-06T18:21:56.286Z,13.07
2023-03-06T18:24:23.767Z,11.60
2023-03-06T18:26:51.262Z,12.35
2023-03-06T18:29:18.767Z,12.80
2023-03-06T18:31:49.866Z,13.50
2023-03-06T18:34:20.196Z,12.93
2023-03-06T18:36:49.250Z,14.18
2023-03-06T18:39:17.218Z,13.63
2023-03-06T18:41:44.741Z,14.27
2023-03-06T18:44:14.139Z,14.30
2023-03-06T18:46:41.877Z,14.45
2023-03-06T18:49:13.159Z,13.00
2023-03-06T18:51:40.775Z,14.52
2023-03-06T18:54:08.680Z,16.65
2023-03-06T18:56:36.240Z,18.02
2023-03-06T18:59:07.204Z,17.08
2023-03-06T19:01:35.058Z,17.70
2023-03-06T19:04:03.062Z,17.75
2023-03-06T19:06:31.012Z,19.10
2023-03-06T19:08:58.802Z,20.45
2023-03-06T19:11:26.947Z,20.02
2023-03-06T19:13:55.063Z,20.33
2023-03-06T19:16:24.746Z,20.33
2023-03-06T19:18:52.684Z,21.20
2023-03-06T19:21:21.519Z,22.80
2023-03-06T19:23:49.292Z,22.10
2023-03-06T19:26:18.605Z,22.27
2023-03-06T19:28:46.440Z,20.10
2023-03-06T19:31:25.167Z,22.38
2023-03-06T19:33:53.465Z,20.60
2023-03-06T19:36:23.707Z,19.10
2023-03-06T19:38:54.129Z,19.20
2023-03-06T19:41:21.781Z,18.02
2023-03-06T19:43:52.145Z,19.42
2023-03-06T19:46:20.068Z,18.77
2023-03-06T19:48:47.637Z,11.20
2023-03-06T19:51:15.290Z,4.25
2023-03-06T19:53:42.878Z,3.08
2023-03-06T19:56:16.604Z,2.90
2023-03-06T19:58:44.167Z,2.03
2023-03-06T20:01:16.012Z,2.25
2023-03-06T20:03:43.905Z,2.70
2023-03-06T20:06:13.733Z,2.92
2023-03-06T20:08:41.279Z,3.10
2023-03-06T20:11:15.812Z,2.78
2023-03-06T20:13:47.564Z,3.05
2023-03-06T20:16:15.819Z,2.28
2023-03-06T20:18:43.492Z,2.72
2023-03-06T20:21:10.959Z,2.40
2023-03-06T20:23:38.527Z,2.03
2023-03-06T20:26:07.284Z,2.17
2023-03-06T20:28:35.375Z,1.65
2023-03-06T20:31:07.562Z,2.00
2023-03-06T20:33:35.341Z,2.20
2023-03-06T20:36:02.982Z,1.90
2023-03-06T20:38:30.517Z,2.08
2023-03-06T20:40:59.736Z,2.00
2023-03-06T20:43:27.312Z,2.40
2023-03-06T20:46:02.696Z,2.10
2023-03-06T20:48:30.603Z,2.15
2023-03-06T20:51:08.539Z,2.90
2023-03-06T20:53:36.391Z,2.50
2023-03-06T20:56:04.016Z,2.80
2023-03-06T20:58:32.606Z,2.65
2023-03-06T21:01:02.310Z,2.63
2023-03-06T21:03:30.262Z,2.45
2023-03-06T21:05:57.732Z,2.40
2023-03-06T21:08:25.371Z,1.98
2023-03-06T21:10:52.860Z,2.38
2023-03-06T21:13:20.321Z,1.77
2023-03-06T21:15:49.901Z,2.22
2023-03-06T21:18:17.588Z,2.38
2023-03-06T21:20:45.066Z,2.85
2023-03-06T21:23:12.579Z,2.80
2023-03-06T21:25:48.055Z,3.10
2023-03-06T21:28:15.730Z,3.10
2023-03-06T21:30:44.248Z,3.58
2023-03-06T21:33:12.026Z,3.58
2023-03-06T21:35:40.368Z,4.35
2023-03-06T21:38:08.087Z,4.63
2023-03-06T21:40:35.654Z,3.65
2023-03-06T21:43:03.970Z,3.92
2023-03-06T21:45:32.119Z,4.90
2023-03-06T21:48:02.843Z,4.05
2023-03-06T21:50:30.331Z,5.03
2023-03-06T21:52:57.898Z,5.80
2023-03-06T21:55:25.385Z,5.68
2023-03-06T21:57:53.453Z,7.45
2023-03-06T22:00:23.191Z,6.97
2023-03-06T22:02:51.274Z,6.40
2023-03-06T22:05:19.063Z,6.53
2023-03-06T22:07:46.532Z,7.65
2023-03-06T22:10:15.602Z,6.82
2023-03-06T22:12:43.166Z,7.88
2023-03-06T22:15:10.872Z,7.65
2023-03-06T22:17:39.717Z,7.85
2023-03-06T22:20:07.283Z,8.18
2023-03-06T22:22:34.733Z,8.32
2023-03-06T22:25:04.246Z,7.25
2023-03-06T22:27:31.725Z,7.78
2023-03-06T22:29:59.232Z,5.50
2023-03-06T22:32:31.677Z,4.28
2023-03-06T22:35:03.939Z,3.30
2023-03-06T22:37:31.974Z,3.05
2023-03-06T22:39:59.501Z,2.35
2023-03-06T22:42:26.995Z,0.90
2023-03-06T22:44:54.419Z,1.15
2023-03-06T22:47:21.909Z,1.40
2023-03-06T22:49:49.358Z,0.82
2023-03-06T22:52:19.547Z,1.52
2023-03-06T22:54:46.996Z,1.40
2023-03-06T22:57:14.550Z,1.45
2023-03-06T22:59:42.106Z,1.00
2023-03-06T23:02:10.211Z,1.05
2023-03-06T23:04:37.750Z,1.00
2023-03-06T23:07:05.321Z,0.93
2023-03-06T23:09:33.130Z,1.75
2023-03-06T23:12:18.959Z,3.58
2023-03-06T23:15:05.295Z,1.58
2023-03-06T23:17:51.939Z,2.20
2023-03-06T23:20:42.032Z,3.20
2023-03-06T23:23:27.712Z,2.25
2023-03-06T23:25:59.261Z,2.25
2023-03-06T23:28:26.950Z,2.33
2023-03-06T23:30:54.546Z,2.63
2023-03-06T23:33:22.119Z,2.72
2023-03-06T23:35:49.661Z,2.33
2023-03-06T23:38:17.199Z,2.25
2023-03-06T23:40:44.739Z,2.92
2023-03-06T23:43:12.268Z,1.92
2023-03-06T23:45:39.776Z,2.30
2023-03-06T23:48:09.138Z,2.60
2023-03-06T23:50:40.119Z,2.50
2023-03-06T23:53:07.613Z,2.05
2023-03-06T23:55:35.037Z,3.42
2023-03-06T23:58:04.740Z,1.52
